Latest Weather Observations for Casey*

IDT60801

Issued at 11:02 am EDT Friday 30 January 2015 (issued every 30 minutes, with the page automatically refreshed every 10 minutes)

About weather observations | Map of weather stations | Latest weather observations for ANT | Other Formats
Station Details ID: 300017 Name: CASEY Lat: -66.28 Lon: 110.52 Height: 40.0 m
Data from the previous 72 hours. | See also: Recent months at Casey*
Date/Time
EDT
Temp
°C
App
Temp
°C
Dew
Point
Rel
Hum
%
Delta-T
°C
Wind Press
QNH
hPa
Press
MSL
hPa
Rain
since 9 am
mm
Dir
 
Spd
km/h
Gust
km/h
Spd
kts
Gust
kts
30/11:00am 1.1 -7.8 -2.3 78 - NE 35 39 19 21 988.5 988.7 -
30/10:30am 1.0 -8.3 -2.2 79 - ENE 37 43 20 23 988.5 - -
30/10:00am 1.1 -7.4 -2.1 79 - NE 33 41 18 22 988.5 - -
30/09:30am 0.8 -8.5 -1.8 83 - ENE 37 43 20 23 988.6 - -
30/09:00am 0.5 -7.7 -1.3 88 - ENE 32 39 17 21 988.5 - -
30/08:30am 0.3 -7.2 -1.1 90 - NE 28 35 15 19 988.3 - -
30/08:00am 0.2 -9.0 -1.1 91 - NE 37 43 20 23 988.2 988.4 -
30/07:30am 0.0 -7.8 -1.1 92 - NE 30 43 16 23 988.0 - -
30/07:00am 0.1 -7.4 -1.2 91 - NE 28 32 15 17 988.1 - -
30/06:30am -0.2 -6.9 -1.2 93 - NE 24 30 13 16 987.9 - -
30/06:00am -0.6 -6.4 -1.4 94 - NNE 19 24 10 13 987.8 - -
30/05:30am -0.6 -6.9 -1.2 96 - NNE 22 26 12 14 987.5 - -
30/05:00am -0.6 -8.1 -1.2 96 - NNE 28 33 15 18 987.2 987.4 -
30/04:30am -0.7 -7.4 -1.1 97 - NNE 24 32 13 17 986.9 - -
30/04:00am -0.5 -8.3 -0.9 97 - NNE 30 37 16 20 986.4 - -
30/03:30am -0.5 -7.9 -0.9 97 - NNE 28 35 15 19 986.0 - -
30/03:00am -0.6 -8.1 -1.2 96 - NNE 28 33 15 18 985.6 - -
30/02:30am -0.6 -8.1 -1.2 96 - N 28 37 15 20 985.5 - -
30/02:00am -0.5 -7.6 -1.1 96 - NNE 26 33 14 18 985.0 985.2 -
30/01:30am -0.4 -9.6 -1.0 96 - NNE 37 44 20 24 984.5 - -
30/01:00am -0.1 -9.6 -0.8 95 - NNE 39 50 21 27 984.0 - -
30/12:30am 0.2 -10.3 -0.8 93 - NNE 44 57 24 31 983.3 - -
30/12:00am 0.6 -8.5 -0.7 91 - NNE 37 46 20 25 983.1 - -
 
Date/Time
EDT
Temp
°C
App
Temp
°C
Dew
Point
Rel
Hum
%
Delta-T
°C
Wind Press
QNH
hPa
Press
MSL
hPa
Rain
since 9 am
mm
Dir
 
Spd
km/h
Gust
km/h
Spd
kts
Gust
kts
29/11:30pm 0.8 -9.4 -0.6 90 - NNE 43 52 23 28 982.5 - -
29/11:00pm 1.2 -7.5 -0.6 88 - NNE 35 44 19 24 982.0 982.3 -
29/10:31pm 1.1 -7.3 -0.8 87 - NNE 33 52 18 28 981.7 - -
29/10:30pm 0.9 -7.9 -1.2 86 - NNE 35 52 19 28 981.7 - -
29/10:00pm 2.4 -8.0 -0.7 80 - NE 44 54 24 29 981.0 - -
29/09:30pm 2.8 -6.4 -1.0 76 - NE 37 50 20 27 980.9 - -
29/09:00pm 2.9 -4.5 -0.9 76 - NE 28 35 15 19 980.6 - -
29/08:30pm 2.6 -4.5 -1.0 77 - N 26 35 14 19 980.4 - -
29/08:00pm 2.4 -5.0 -1.0 78 - N 28 39 15 21 980.1 980.4 -
29/07:30pm 2.4 -4.3 -1.0 78 - N 24 30 13 16 979.9 - -
29/07:00pm 2.3 -2.3 -1.1 78 - N 13 20 7 11 980.0 - -
29/06:30pm 3.2 -3.9 -1.5 71 - NNE 26 39 14 21 980.0 - -
29/06:26pm 3.3 -5.0 -1.6 70 - NE 32 50 17 27 979.9 - -
29/06:00pm 3.4 -7.0 -1.5 70 - NE 43 52 23 28 979.4 - -
29/05:30pm 3.2 -6.7 -1.2 73 - NE 41 52 22 28 979.3 - -
29/05:00pm 3.3 -6.7 -1.8 69 - ENE 41 48 22 26 979.2 979.5 -
29/04:42pm 3.1 -7.9 -2.0 69 - ENE 46 65 25 35 978.9 - -
29/04:30pm 2.9 -10.2 -2.0 70 - ENE 57 72 31 39 978.5 - -
29/04:00pm 2.8 -11.8 -2.3 69 - NE 65 78 35 42 977.0 - -
29/03:36pm 2.5 -12.1 -2.2 71 - NE 65 85 35 46 976.4 - -
29/03:30pm 2.5 -11.0 -2.0 72 - NE 59 76 32 41 976.6 - -
29/03:23pm 2.6 -9.9 -1.9 72 - NE 54 74 29 40 976.4 - -
29/03:20pm 2.5 -9.6 -2.0 72 - NE 52 63 28 34 976.5 - -
29/03:00pm 3.0 -14.5 -2.1 69 - ENE 80 102 43 55 975.6 - -
29/02:55pm 2.9 -14.6 -2.2 69 - ENE 80 102 43 55 975.8 - -
29/02:30pm 3.0 -15.0 -2.1 69 - ENE 83 98 45 53 975.8 - -
29/02:19pm 2.9 -15.2 -2.2 69 - ENE 83 102 45 55 975.9 - -
29/02:00pm 3.4 -15.4 -2.3 66 - ENE 87 102 47 55 975.7 975.9 -
29/01:38pm 3.6 -14.3 -2.3 65 - ENE 82 100 44 54 976.0 - -
29/01:30pm 3.5 -15.3 -2.2 66 - ENE 87 102 47 55 976.1 - -
29/01:00pm 3.2 -14.8 -2.1 68 - ENE 83 98 45 53 976.2 - -
29/12:53pm 3.1 -16.1 -2.0 69 - ENE 89 96 48 52 976.3 - -
29/12:33pm 2.8 -12.6 -1.9 71 - ENE 69 87 37 47 977.6 - -
29/12:30pm 2.9 -13.4 -2.0 70 - ENE 74 89 40 48 977.5 - -
29/12:17pm 2.9 -13.4 -2.0 70 - ENE 74 93 40 50 977.5 - -
29/12:00pm 2.8 -14.6 -1.9 71 - ENE 80 95 43 51 977.1 - -
29/11:30am 2.8 -13.9 -2.1 70 - ENE 76 95 41 51 977.3 - -
29/11:00am 2.8 -13.1 -1.9 71 - ENE 72 91 39 49 977.5 977.8 -
29/10:36am 2.7 -12.8 -1.6 73 - ENE 70 89 38 48 977.9 - -
29/10:30am 2.6 -13.3 -1.7 73 - ENE 72 89 39 48 978.0 - -
29/10:00am 2.7 -12.6 -1.6 73 - ENE 69 89 37 48 978.0 - -
29/09:30am 2.6 -14.0 -1.4 75 - ENE 76 95 41 51 977.5 - -
29/09:06am 2.5 -13.3 -1.3 76 - ENE 72 91 39 49 977.3 - -
29/09:00am 2.4 -13.8 -1.2 77 - ENE 74 91 40 49 977.2 - -
29/08:57am 2.4 -13.5 -1.4 76 - ENE 72 83 39 45 977.2 - -
29/08:30am 2.2 -17.2 -1.2 78 - ENE 91 111 49 60 976.1 - -
29/08:00am 1.9 -18.0 -1.5 78 - ENE 93 122 50 66 975.4 975.6 -
29/07:30am 1.8 -17.7 -1.4 79 - ENE 91 111 49 60 974.7 - -
29/07:22am 2.0 -17.5 -1.6 77 - ENE 91 109 49 59 975.1 - -
29/07:14am 1.7 -17.8 -1.5 79 - ENE 91 106 49 57 975.0 - -
29/07:00am 1.7 -21.6 -1.7 78 - ENE 111 133 60 72 973.8 - -
29/06:46am 1.6 -20.4 -1.5 80 - ENE 104 130 56 70 973.0 - -
29/06:30am 1.9 -18.6 -1.7 77 - ENE 96 119 52 64 975.0 - -
29/06:09am 1.7 -18.2 -1.9 77 - ENE 93 115 50 62 976.0 - -
29/06:00am 1.6 -18.4 -2.2 76 - E 93 109 50 59 976.2 - -
29/05:48am 1.7 -18.8 -2.1 76 - E 96 115 52 62 976.3 - -
29/05:30am 1.7 -18.8 -2.2 75 - E 96 113 52 61 976.3 - -
29/05:28am 1.7 -18.6 -2.1 76 - E 95 113 51 61 976.4 - -
29/05:00am 1.6 -18.4 -2.2 76 - E 93 107 50 58 977.4 977.7 -
29/04:54am 1.6 -18.7 -2.2 76 - E 95 113 51 61 977.7 - -
29/04:30am 1.9 -18.9 -1.7 77 - E 98 113 53 61 977.5 - -
29/04:06am 1.5 -18.9 -1.6 80 - E 96 115 52 62 977.8 - -
29/04:00am 1.5 -18.8 -1.9 78 - E 95 109 51 59 978.3 - -
29/03:30am 1.6 -17.9 -2.0 77 - E 91 107 49 58 978.8 - -
29/03:19am 1.6 -16.8 -1.8 78 - E 85 107 46 58 979.1 - -
29/03:00am 1.3 -17.5 -1.9 79 - E 87 102 47 55 979.6 - -
29/02:30am 1.4 -16.1 -2.0 78 - E 80 98 43 53 980.1 - -
29/02:22am 1.4 -15.7 -2.4 76 - E 78 85 42 46 980.8 - -
29/02:16am 1.4 -12.1 -2.5 75 - E 59 83 32 45 982.0 - -
29/02:14am 1.4 -11.8 -2.5 75 - E 57 65 31 35 982.4 - -
29/02:11am 1.4 -6.6 -2.7 74 - E 30 48 16 26 983.3 - -
29/02:00am 1.8 -4.3 -3.7 67 - S 19 22 10 12 983.6 983.9 -
29/01:51am 2.2 -5.6 -3.7 65 - ESE 28 32 15 17 984.1 - -
29/01:40am 1.8 -9.0 -3.1 70 - E 44 48 24 26 984.0 - -
29/01:30am 1.9 -12.5 -3.2 69 - E 63 74 34 40 983.8 - -
29/01:00am 1.7 -10.3 -3.6 68 - ENE 50 59 27 32 984.1 - -
29/12:30am 2.0 -8.8 -3.9 65 - ENE 44 54 24 29 984.7 - -
29/12:00am 1.4 -8.1 -3.8 68 - ENE 37 48 20 26 985.2 - -
 
Date/Time
EDT
Temp
°C
App
Temp
°C
Dew
Point
Rel
Hum
%
Delta-T
°C
Wind Press
QNH
hPa
Press
MSL
hPa
Rain
since 9 am
mm
Dir
 
Spd
km/h
Gust
km/h
Spd
kts
Gust
kts
28/11:30pm 1.1 -6.1 -5.1 63 - NNE 24 33 13 18 985.5 - -
28/11:00pm -1.4 -6.1 -5.1 76 - SSE 11 30 6 16 986.1 986.3 -
28/10:30pm -0.6 -4.5 -4.6 74 - SE 7 9 4 5 986.0 - -
28/10:00pm -0.8 -3.4 -4.7 75 - CALM 0 9 0 5 986.1 - -
28/09:30pm -0.1 -2.6 -4.2 74 - CALM 0 6 0 3 986.5 - -
28/09:00pm -0.1 -4.0 -4.2 74 - N 7 9 4 5 986.6 - -
28/08:30pm 1.4 -1.1 -4.2 66 - CALM 0 0 0 0 986.6 - -
28/08:00pm 0.9 -2.0 -3.9 70 - SSW 2 6 1 3 986.4 986.6 -
28/07:30pm 0.0 -4.6 -4.1 74 - S 11 13 6 7 986.5 - -
28/07:00pm 0.0 -4.6 -4.1 74 - S 11 13 6 7 986.5 - -
28/06:30pm 0.4 -4.2 -4.4 70 - SSE 11 15 6 8 986.5 - -
28/06:00pm 0.3 -4.7 -4.3 71 - SSE 13 15 7 8 986.6 - -
28/05:30pm -0.2 -5.2 -4.6 72 - SSE 13 13 7 7 986.6 - -
28/05:00pm -0.8 -5.8 -4.1 78 - SSE 13 17 7 9 986.7 986.9 -
28/04:30pm -0.7 -5.7 -4.2 77 - S 13 15 7 8 986.7 - -
28/04:00pm -0.9 -5.9 -3.9 80 - S 13 15 7 8 986.6 - -
28/03:30pm -1.3 -5.9 -4.3 80 - S 11 13 6 7 986.3 - -
28/03:00pm -0.8 -3.8 -4.8 74 - NNE 2 7 1 4 986.3 - -
28/02:30pm -1.7 -5.6 -4.2 83 - NNE 7 9 4 5 986.2 - -
28/02:00pm -1.6 -4.1 -4.4 81 - CALM 0 0 0 0 985.7 985.9 -
28/01:30pm -1.8 -6.4 -4.1 84 - SSE 11 19 6 10 985.5 - -
28/01:00pm -2.2 -6.5 -4.7 83 - SSE 9 13 5 7 985.2 - -
28/12:30pm -3.2 -8.6 -4.7 89 - SSE 15 17 8 9 985.0 - -
28/12:00pm -3.8 -8.9 -5.2 90 - S 13 15 7 8 984.6 - -
28/11:30am -3.8 -8.9 -5.2 90 - S 13 15 7 8 984.3 - -
28/11:00am -3.6 -9.1 -5.0 90 - SSE 15 17 8 9 983.9 984.1 -
28/10:30am -3.3 -8.3 -4.6 91 - S 13 15 7 8 983.6 - -
28/10:00am -2.6 -6.5 -4.5 87 - NNW 7 15 4 8 983.1 - -
28/09:30am -2.7 -7.7 -4.0 91 - SW 13 19 7 10 982.6 - -
28/09:00am -1.9 -8.6 -3.8 87 - NE 22 35 12 19 982.1 - -
28/08:30am -2.7 -7.3 -4.1 90 - SSE 11 19 6 10 981.8 - -
28/08:00am -2.6 -7.6 -4.0 90 - SSW 13 20 7 11 981.3 981.6 -
28/07:30am -3.2 -9.9 -4.5 91 - S 22 32 12 17 980.8 - -
28/07:00am -2.4 -9.5 -4.1 88 - SE 24 37 13 20 980.2 - -
28/06:54am -1.2 -9.6 -2.2 93 - E 32 52 17 28 979.7 - -
28/06:52am -2.2 -12.1 -3.5 91 - E 39 52 21 28 979.4 - -
28/06:32am -2.1 -15.3 -3.1 93 - E 57 76 31 41 978.7 - -
28/06:30am -2.9 -16.6 -4.2 91 - E 59 76 32 41 978.7 - -
28/06:00am -3.2 -17.0 -4.6 90 - E 59 80 32 43 978.3 - -
28/05:53am -3.1 -17.2 -4.4 91 - E 61 80 33 43 978.0 - -
28/05:49am -3.4 -17.6 -4.7 91 - E 61 69 33 37 978.1 - -
28/05:44am -3.3 -14.0 -4.4 92 - ESE 43 63 23 34 978.7 - -
28/05:42am -3.4 -13.4 -4.4 93 - ESE 39 48 21 26 978.9 - -
28/05:30am -3.8 -13.8 -4.8 93 - SSE 39 48 21 26 978.7 - -
28/05:00am -3.9 -14.7 -5.1 91 - SE 43 50 23 27 978.4 978.7 -
28/04:30am -3.7 -13.0 -5.8 85 - SE 35 50 19 27 978.5 - -
28/04:00am -3.3 -11.5 -4.4 92 - SSE 30 56 16 30 978.5 - -
28/03:30am -3.3 -7.9 -4.4 92 - SSW 11 20 6 11 978.3 - -
28/03:00am -3.3 -11.2 -4.6 91 - SSE 28 39 15 21 977.9 - -
28/02:59am -3.2 -11.1 -4.6 90 - SSE 28 39 15 21 977.8 - -
28/02:30am -3.4 -8.8 -4.5 92 - SE 15 19 8 10 978.1 - -
28/02:00am -2.6 -9.4 -4.9 84 - SSE 22 30 12 16 977.8 978.1 -
28/01:30am -2.7 -8.5 -4.7 86 - SE 17 26 9 14 977.7 - -
28/01:00am -2.9 -7.1 -3.9 93 - SE 9 13 5 7 978.1 - -
28/12:30am -2.9 -8.6 -3.7 94 - S 17 19 9 10 978.0 - -
28/12:00am -3.0 -8.7 -4.0 93 - S 17 20 9 11 978.3 - -
 
Date/Time
EDT
Temp
°C
App
Temp
°C
Dew
Point
Rel
Hum
%
Delta-T
°C
Wind Press
QNH
hPa
Press
MSL
hPa
Rain
since 9 am
mm
Dir
 
Spd
km/h
Gust
km/h
Spd
kts
Gust
kts
27/11:30pm -2.7 -8.8 -3.7 93 - SSW 19 22 10 12 978.6 - -
27/11:00pm -2.1 -8.1 -2.9 94 - SSW 19 20 10 11 978.3 978.6 -
27/10:30pm -2.0 -6.5 -3.0 93 - S 11 15 6 8 978.6 - -
27/10:00pm -2.2 -8.4 -3.2 93 - S 20 24 11 13 978.2 - -
27/09:30pm -0.9 -6.7 -4.6 76 - ESE 17 28 9 15 977.8 - -
27/09:00pm 0.6 -5.8 -7.1 56 - ENE 19 33 10 18 977.9 - -
27/08:44pm -0.4 -8.4 -5.8 67 - SSW 28 46 15 25 977.6 - -
27/08:30pm -0.3 -7.6 -6.1 65 - SW 24 37 13 20 978.0 - -
27/08:18pm 2.4 -6.5 -11.8 34 - ESE 30 52 16 28 978.1 - -
27/08:17pm 2.5 -6.0 -12.5 32 - ESE 28 41 15 22 978.1 - -
27/08:15pm 2.0 -9.4 -12.6 33 - E 43 57 23 31 978.0 - -
27/08:07pm 2.1 -5.7 -12.1 34 - S 24 50 13 27 978.2 - -
27/08:00pm 2.2 -8.9 -13.1 31 - E 41 67 22 36 977.7 978.0 -
27/07:51pm 2.7 -7.5 -12.3 32 - ESE 37 59 20 32 977.9 - -
27/07:44pm 2.4 -7.5 -13.4 30 - SE 35 74 19 40 978.2 - -
27/07:30pm 1.1 -7.7 -10.4 42 - S 30 52 16 28 978.1 - -
27/07:29pm 1.3 -7.1 -10.8 40 - S 28 46 15 25 978.1 - -
27/07:00pm 0.6 -7.4 -9.7 46 - SSE 26 39 14 21 979.0 - -
27/06:30pm 0.9 -7.4 -9.1 47 - SE 28 39 15 21 979.4 - -
27/06:00pm -0.7 -6.2 -5.1 72 - S 15 26 8 14 979.4 - -
27/05:30pm -0.8 -6.5 -4.1 78 - S 17 24 9 13 979.8 - -
27/05:00pm -1.1 -7.7 -3.6 83 - SSW 22 30 12 16 980.0 980.3 -
27/04:30pm -1.2 -9.0 -3.4 85 - S 28 41 15 22 980.0 - -
27/04:00pm -1.3 -9.2 -4.5 79 - SSW 28 39 15 21 980.4 - -
27/03:30pm -0.2 -7.3 -4.3 74 - SSW 24 33 13 18 981.0 - -
27/03:18pm 0.9 -4.5 -4.1 69 - SSE 15 20 8 11 980.9 - -
27/03:00pm -1.7 -11.7 -4.4 82 - SW 39 46 21 25 980.8 - -
27/02:30pm -0.4 -7.9 -4.5 74 - SSW 26 50 14 27 981.6 - -

Other Formats:

Comma delimited format used in spreadsheet applications
http://www.bom.gov.au/fwo/IDT60803/IDT60803.89611.axf

JavaScript Object Notation format (JSON) in row-major order
http://www.bom.gov.au/fwo/IDT60803/IDT60803.89611.json